Sao Joaquim da Barra, Brazil
Current Conditions -  °F | °C
As of 6:00 PM on Sunday 25 Jan 2015 (Local Time) from SBRP Reporting Station
Few Clouds Few Clouds  
Wind Chill: 86°   Ceiling: Unl
Heat Index: 87°   Visibility: 6mi
Dew Point: 64°   Wind: 6mph
Humidity: 48%   Direction: 10°N
Pressure: 29.88"   Gusts: NA
Location:  20.58°S, 47.86°W
Report Text: SBRP 252000Z 01005KT 9999 FEW045 30/18 Q1012
Loading
Personal Weather Stations






























Interactive Weather Map New forecast layout! Learn more

10-Day Weather Forecast

Advertisements
Track Severe Weather on mobile